Meteo Giornale » Osservazioni meteo Messico » Mexico City-Licenci

ore: 20:48 - Osservazioni Meteo Mexico City-Licenci
Lat. 19° 26' N Lon. 99° 6' W Alt. 2238 metri s.l.m.

molto_nuvoloso America/Mexico_City

19 °C

Molto Nuvoloso

Temp. 24 Ore

12 °C

25 °C

Est/Nord-Est

11.1 Km/h

Dew point 8 °C

Umidità 48 %

Visibilità  10 Km

Il sole sorge alle ore 07:10

Il sole tramonta alle ore 20:15

Data e Ora Cielo e Fenomeni T °C DP °C Um. % Pres. hPa Vis. km Vento km/h
Oggi h: 20:48 molto_nuvoloso Molto Nuvoloso 19 8 48 1026 10 E/NE 11.1
Oggi h: 19:45 molto_nuvoloso Molto Nuvoloso 20 9 49 1026 13 SO 16.7
Oggi h: 19:20 molto_nuvoloso Molto Nuvoloso 21 6 37 1025 13 E 22.2
Oggi h: 18:45 molto_nuvoloso Molto Nuvoloso 23 7 35 1025 13 E 24
Oggi h: 17:49 molto_nuvoloso Molto Nuvoloso 24 8 35 1025 13 NE 14.8
Oggi h: 16:55 molto_nuvoloso Molto Nuvoloso 24 8 35 1025 11 N/NE 18.5
Oggi h: 15:45 molto_nuvoloso Molto Nuvoloso 25 6 29 1026 11 N 13
Oggi h: 14:45 molto_nuvoloso Molto Nuvoloso 24 8 35 1026 11 E/NE 14.8
Oggi h: 13:52 nuvoloso Nuvoloso 23 7 35 1027 11 N/NE 11.1
Oggi h: 12:26 molto_nuvoloso Molto Nuvoloso 21 9 46 1028 10 N 0
Oggi h: 11:42 nuvoloso Nuvoloso 19 10 55 1029 10 SO 7.4
Oggi h: 10:45 nuvoloso Nuvoloso 18 11 63 1029 10 N 5.5
Oggi h: 09:45 nuvoloso Nuvoloso 17 11 67 1029 8 N 5.5
Oggi h: 08:47 nuvoloso Nuvoloso 14 11 82 1028 8 N 5.5
Oggi h: 07:46 molto_nuvoloso Molto Nuvoloso 12 11 93 1028 10 E/NE 7.4
Oggi h: 06:50 molto_nuvoloso Molto Nuvoloso 12 11 93 1028 13 E/NE 11.1
Oggi h: 06:48 molto_nuvoloso Molto Nuvoloso 12 11 93 1028 13 E/NE 9.3
Oggi h: 05:50 molto_nuvoloso Molto Nuvoloso 14 11 82 1027 10 E/NE 9.3
Oggi h: 04:40 molto_nuvoloso Molto Nuvoloso 14 11 82 1027 10 N/NO 7.4
Oggi h: 03:45 molto_nuvoloso Molto Nuvoloso 14 12 87 1027 10 O/SO 7.4
Oggi h: 02:45 molto_nuvoloso Molto Nuvoloso 15 12 82 1027 19 N 5.5
Oggi h: 01:40 nuvoloso Nuvoloso 15 11 76 1028 19 N 0
Oggi h: 00:45 nuvoloso Nuvoloso 15 12 82 1028 19 O/SO 9.3
Ieri h: 23:45 molto_nuvoloso Molto Nuvoloso 15 12 82 1029 19 O 9.3
Ieri h: 22:40 molto_nuvoloso Molto Nuvoloso 15 11 76 1029 10 O/SO 9.3